sensor_id;sensor_type;location;lat;lon;timestamp;temperature;humidity
38746;DHT22;24488;0.000;0.000;2023-05-07T00:00:24;21.80;44.70
38746;DHT22;24488;0.000;0.000;2023-05-07T00:02:50;21.80;44.20
38746;DHT22;24488;0.000;0.000;2023-05-07T00:05:16;21.80;44.70
38746;DHT22;24488;0.000;0.000;2023-05-07T00:07:42;21.80;44.60
38746;DHT22;24488;0.000;0.000;2023-05-07T00:10:10;21.80;44.60
38746;DHT22;24488;0.000;0.000;2023-05-07T00:12:37;21.80;44.20
38746;DHT22;24488;0.000;0.000;2023-05-07T00:15:03;21.80;44.10
38746;DHT22;24488;0.000;0.000;2023-05-07T00:17:30;21.80;44.10
38746;DHT22;24488;0.000;0.000;2023-05-07T00:19:55;21.80;44.60
38746;DHT22;24488;0.000;0.000;2023-05-07T00:22:21;21.80;44.70
38746;DHT22;24488;0.000;0.000;2023-05-07T00:24:47;21.80;44.70
38746;DHT22;24488;0.000;0.000;2023-05-07T00:27:12;21.80;44.20
38746;DHT22;24488;0.000;0.000;2023-05-07T00:29:38;21.80;44.70
38746;DHT22;24488;0.000;0.000;2023-05-07T00:32:04;21.70;44.20
38746;DHT22;24488;0.000;0.000;2023-05-07T00:34:30;21.70;44.70
38746;DHT22;24488;0.000;0.000;2023-05-07T00:36:55;21.70;44.60
38746;DHT22;24488;0.000;0.000;2023-05-07T00:39:21;21.80;44.20
38746;DHT22;24488;0.000;0.000;2023-05-07T00:41:46;21.80;44.70
38746;DHT22;24488;0.000;0.000;2023-05-07T00:44:12;21.70;44.70
38746;DHT22;24488;0.000;0.000;2023-05-07T00:46:39;21.70;44.70
38746;DHT22;24488;0.000;0.000;2023-05-07T00:49:05;21.70;44.20
38746;DHT22;24488;0.000;0.000;2023-05-07T00:51:31;21.70;44.70
38746;DHT22;24488;0.000;0.000;2023-05-07T00:53:57;21.80;44.20
38746;DHT22;24488;0.000;0.000;2023-05-07T00:56:23;21.80;44.70
38746;DHT22;24488;0.000;0.000;2023-05-07T00:58:49;21.80;44.10
38746;DHT22;24488;0.000;0.000;2023-05-07T01:01:14;21.70;44.50
38746;DHT22;24488;0.000;0.000;2023-05-07T01:03:43;21.80;44.50
38746;DHT22;24488;0.000;0.000;2023-05-07T01:06:08;21.80;44.50
38746;DHT22;24488;0.000;0.000;2023-05-07T01:08:37;21.80;44.00
38746;DHT22;24488;0.000;0.000;2023-05-07T01:11:05;21.90;44.50
38746;DHT22;24488;0.000;0.000;2023-05-07T01:13:32;21.70;44.50
38746;DHT22;24488;0.000;0.000;2023-05-07T01:15:58;21.80;44.50
38746;DHT22;24488;0.000;0.000;2023-05-07T01:18:24;21.80;44.00
38746;DHT22;24488;0.000;0.000;2023-05-07T01:20:51;21.80;44.50
38746;DHT22;24488;0.000;0.000;2023-05-07T01:23:17;21.80;44.40
38746;DHT22;24488;0.000;0.000;2023-05-07T01:25:50;21.80;44.30
38746;DHT22;24488;0.000;0.000;2023-05-07T01:28:16;21.80;43.80
38746;DHT22;24488;0.000;0.000;2023-05-07T01:30:42;21.80;44.30
38746;DHT22;24488;0.000;0.000;2023-05-07T01:33:12;21.80;44.30
38746;DHT22;24488;0.000;0.000;2023-05-07T01:35:40;21.80;44.30
38746;DHT22;24488;0.000;0.000;2023-05-07T01:38:07;21.80;43.80
38746;DHT22;24488;0.000;0.000;2023-05-07T01:40:33;21.80;44.30
38746;DHT22;24488;0.000;0.000;2023-05-07T01:43:02;21.80;44.20
38746;DHT22;24488;0.000;0.000;2023-05-07T01:45:28;21.80;44.30
38746;DHT22;24488;0.000;0.000;2023-05-07T01:47:55;21.80;43.90
38746;DHT22;24488;0.000;0.000;2023-05-07T01:50:21;21.80;44.30
38746;DHT22;24488;0.000;0.000;2023-05-07T01:52:47;21.80;43.90
38746;DHT22;24488;0.000;0.000;2023-05-07T01:55:13;21.80;44.30
38746;DHT22;24488;0.000;0.000;2023-05-07T01:57:38;21.80;43.80
38746;DHT22;24488;0.000;0.000;2023-05-07T02:00:04;22.20;44.50
38746;DHT22;24488;0.000;0.000;2023-05-07T02:02:30;21.70;43.80
38746;DHT22;24488;0.000;0.000;2023-05-07T02:04:56;21.70;44.30
38746;DHT22;24488;0.000;0.000;2023-05-07T02:07:22;21.70;43.80
38746;DHT22;24488;0.000;0.000;2023-05-07T02:09:47;21.70;44.20
38746;DHT22;24488;0.000;0.000;2023-05-07T02:12:13;21.80;44.20
38746;DHT22;24488;0.000;0.000;2023-05-07T02:14:38;21.70;44.20
38746;DHT22;24488;0.000;0.000;2023-05-07T02:17:04;21.70;44.30
38746;DHT22;24488;0.000;0.000;2023-05-07T02:19:30;21.70;43.80
38746;DHT22;24488;0.000;0.000;2023-05-07T02:21:55;21.70;44.30
38746;DHT22;24488;0.000;0.000;2023-05-07T02:24:21;21.70;44.20
38746;DHT22;24488;0.000;0.000;2023-05-07T02:26:46;21.70;44.30
38746;DHT22;24488;0.000;0.000;2023-05-07T02:29:12;21.70;43.80
38746;DHT22;24488;0.000;0.000;2023-05-07T02:31:37;21.70;44.20
38746;DHT22;24488;0.000;0.000;2023-05-07T02:34:03;21.70;44.30
38746;DHT22;24488;0.000;0.000;2023-05-07T02:36:29;21.70;44.20
38746;DHT22;24488;0.000;0.000;2023-05-07T02:38:54;21.70;43.80
38746;DHT22;24488;0.000;0.000;2023-05-07T02:41:20;21.70;44.30
38746;DHT22;24488;0.000;0.000;2023-05-07T02:43:45;21.70;44.40
38746;DHT22;24488;0.000;0.000;2023-05-07T02:46:11;21.70;44.30
38746;DHT22;24488;0.000;0.000;2023-05-07T02:48:37;21.70;43.80
38746;DHT22;24488;0.000;0.000;2023-05-07T02:51:03;21.60;44.20
38746;DHT22;24488;0.000;0.000;2023-05-07T02:53:29;21.60;44.30
38746;DHT22;24488;0.000;0.000;2023-05-07T02:55:55;22.50;44.70
38746;DHT22;24488;0.000;0.000;2023-05-07T02:58:21;21.60;43.80
38746;DHT22;24488;0.000;0.000;2023-05-07T03:00:47;21.60;44.20
38746;DHT22;24488;0.000;0.000;2023-05-07T03:03:13;21.60;44.20
38746;DHT22;24488;0.000;0.000;2023-05-07T03:05:39;21.60;44.20
38746;DHT22;24488;0.000;0.000;2023-05-07T03:08:05;21.70;43.70
38746;DHT22;24488;0.000;0.000;2023-05-07T03:10:30;21.70;44.20
38746;DHT22;24488;0.000;0.000;2023-05-07T03:12:56;21.60;44.20
38746;DHT22;24488;0.000;0.000;2023-05-07T03:15:21;21.60;44.20
38746;DHT22;24488;0.000;0.000;2023-05-07T03:17:47;21.60;43.70
38746;DHT22;24488;0.000;0.000;2023-05-07T03:20:13;21.60;44.20
38746;DHT22;24488;0.000;0.000;2023-05-07T03:22:39;21.60;43.60
38746;DHT22;24488;0.000;0.000;2023-05-07T03:25:05;21.60;43.60
38746;DHT22;24488;0.000;0.000;2023-05-07T03:27:31;21.60;44.10
38746;DHT22;24488;0.000;0.000;2023-05-07T03:29:56;21.60;44.10
38746;DHT22;24488;0.000;0.000;2023-05-07T03:32:22;21.60;44.70
38746;DHT22;24488;0.000;0.000;2023-05-07T03:34:48;21.60;43.70
38746;DHT22;24488;0.000;0.000;2023-05-07T03:37:13;21.60;44.10
38746;DHT22;24488;0.000;0.000;2023-05-07T03:39:39;21.60;44.10
38746;DHT22;24488;0.000;0.000;2023-05-07T03:42:04;21.60;44.10
38746;DHT22;24488;0.000;0.000;2023-05-07T03:44:30;21.60;43.70
38746;DHT22;24488;0.000;0.000;2023-05-07T03:46:55;21.50;44.70
38746;DHT22;24488;0.000;0.000;2023-05-07T03:49:21;21.60;44.10
38746;DHT22;24488;0.000;0.000;2023-05-07T03:51:46;21.50;44.00
38746;DHT22;24488;0.000;0.000;2023-05-07T03:54:12;21.50;43.70
38746;DHT22;24488;0.000;0.000;2023-05-07T03:56:38;21.50;44.20
38746;DHT22;24488;0.000;0.000;2023-05-07T03:59:03;21.60;44.10
38746;DHT22;24488;0.000;0.000;2023-05-07T04:01:29;21.50;44.10
38746;DHT22;24488;0.000;0.000;2023-05-07T04:03:55;21.50;43.60
38746;DHT22;24488;0.000;0.000;2023-05-07T04:06:20;21.50;44.10
38746;DHT22;24488;0.000;0.000;2023-05-07T04:08:46;21.60;44.10
38746;DHT22;24488;0.000;0.000;2023-05-07T04:11:12;21.50;44.00
38746;DHT22;24488;0.000;0.000;2023-05-07T04:13:37;21.50;43.60
38746;DHT22;24488;0.000;0.000;2023-05-07T04:16:03;21.50;44.10
38746;DHT22;24488;0.000;0.000;2023-05-07T04:18:30;21.50;44.00
38746;DHT22;24488;0.000;0.000;2023-05-07T04:20:55;21.60;44.10
38746;DHT22;24488;0.000;0.000;2023-05-07T04:23:21;21.50;43.60
38746;DHT22;24488;0.000;0.000;2023-05-07T04:25:46;21.50;44.00
38746;DHT22;24488;0.000;0.000;2023-05-07T04:28:12;21.50;43.60
38746;DHT22;24488;0.000;0.000;2023-05-07T04:30:38;21.50;44.10
38746;DHT22;24488;0.000;0.000;2023-05-07T04:33:04;21.50;43.60
38746;DHT22;24488;0.000;0.000;2023-05-07T04:35:29;21.50;43.60
38746;DHT22;24488;0.000;0.000;2023-05-07T04:37:55;21.50;44.20
38746;DHT22;24488;0.000;0.000;2023-05-07T04:40:20;21.50;44.20
38746;DHT22;24488;0.000;0.000;2023-05-07T04:42:46;21.50;44.30
38746;DHT22;24488;0.000;0.000;2023-05-07T04:45:11;21.50;43.80
38746;DHT22;24488;0.000;0.000;2023-05-07T04:47:38;21.50;44.20
38746;DHT22;24488;0.000;0.000;2023-05-07T04:50:04;21.50;44.20
38746;DHT22;24488;0.000;0.000;2023-05-07T04:52:31;21.50;44.10
38746;DHT22;24488;0.000;0.000;2023-05-07T04:54:58;21.50;43.60
38746;DHT22;24488;0.000;0.000;2023-05-07T04:57:24;21.50;44.10
38746;DHT22;24488;0.000;0.000;2023-05-07T04:59:50;21.50;44.10
38746;DHT22;24488;0.000;0.000;2023-05-07T05:02:15;21.50;44.10
38746;DHT22;24488;0.000;0.000;2023-05-07T05:04:41;21.40;43.60
38746;DHT22;24488;0.000;0.000;2023-05-07T05:07:06;21.60;44.30
38746;DHT22;24488;0.000;0.000;2023-05-07T05:09:32;21.40;44.20
38746;DHT22;24488;0.000;0.000;2023-05-07T05:11:58;21.50;44.20
38746;DHT22;24488;0.000;0.000;2023-05-07T05:14:24;21.50;43.60
38746;DHT22;24488;0.000;0.000;2023-05-07T05:16:50;21.50;44.00
38746;DHT22;24488;0.000;0.000;2023-05-07T05:19:15;21.60;44.10
38746;DHT22;24488;0.000;0.000;2023-05-07T05:21:41;21.60;44.10
38746;DHT22;24488;0.000;0.000;2023-05-07T05:24:07;21.60;43.60
38746;DHT22;24488;0.000;0.000;2023-05-07T05:26:32;21.70;44.00
38746;DHT22;24488;0.000;0.000;2023-05-07T05:28:58;21.70;43.90
38746;DHT22;24488;0.000;0.000;2023-05-07T05:31:23;21.70;43.90
38746;DHT22;24488;0.000;0.000;2023-05-07T05:33:49;21.70;43.50
38746;DHT22;24488;0.000;0.000;2023-05-07T05:36:15;21.70;44.00
38746;DHT22;24488;0.000;0.000;2023-05-07T05:38:40;21.70;44.00
38746;DHT22;24488;0.000;0.000;2023-05-07T05:41:06;21.80;44.10
38746;DHT22;24488;0.000;0.000;2023-05-07T05:43:31;21.80;43.60
38746;DHT22;24488;0.000;0.000;2023-05-07T05:45:57;21.80;44.10
38746;DHT22;24488;0.000;0.000;2023-05-07T05:48:23;21.80;44.10
38746;DHT22;24488;0.000;0.000;2023-05-07T05:50:48;21.80;44.10
38746;DHT22;24488;0.000;0.000;2023-05-07T05:53:14;21.80;43.60
38746;DHT22;24488;0.000;0.000;2023-05-07T05:55:41;21.80;44.10
38746;DHT22;24488;0.000;0.000;2023-05-07T05:58:06;21.80;44.00
38746;DHT22;24488;0.000;0.000;2023-05-07T06:00:32;21.90;44.10
38746;DHT22;24488;0.000;0.000;2023-05-07T06:02:58;21.90;44.00
38746;DHT22;24488;0.000;0.000;2023-05-07T06:05:23;21.90;43.60
38746;DHT22;24488;0.000;0.000;2023-05-07T06:07:49;21.90;44.00
38746;DHT22;24488;0.000;0.000;2023-05-07T06:10:14;21.90;44.00
38746;DHT22;24488;0.000;0.000;2023-05-07T06:12:40;21.90;44.10
38746;DHT22;24488;0.000;0.000;2023-05-07T06:15:06;21.90;43.50
38746;DHT22;24488;0.000;0.000;2023-05-07T06:17:31;21.90;44.00
38746;DHT22;24488;0.000;0.000;2023-05-07T06:19:57;21.90;44.00
38746;DHT22;24488;0.000;0.000;2023-05-07T06:22:23;21.90;44.00
38746;DHT22;24488;0.000;0.000;2023-05-07T06:24:48;21.90;43.50
38746;DHT22;24488;0.000;0.000;2023-05-07T06:27:14;21.90;44.00
38746;DHT22;24488;0.000;0.000;2023-05-07T06:29:39;21.90;44.00
38746;DHT22;24488;0.000;0.000;2023-05-07T06:32:12;21.90;44.00
38746;DHT22;24488;0.000;0.000;2023-05-07T06:34:39;21.90;43.50
38746;DHT22;24488;0.000;0.000;2023-05-07T06:37:04;21.90;44.00
38746;DHT22;24488;0.000;0.000;2023-05-07T06:39:30;21.90;44.00
38746;DHT22;24488;0.000;0.000;2023-05-07T06:41:56;21.90;44.10
38746;DHT22;24488;0.000;0.000;2023-05-07T06:44:22;21.90;43.70
38746;DHT22;24488;0.000;0.000;2023-05-07T06:46:47;21.90;44.20
38746;DHT22;24488;0.000;0.000;2023-05-07T06:49:13;21.90;44.20
38746;DHT22;24488;0.000;0.000;2023-05-07T06:51:39;21.90;44.20
38746;DHT22;24488;0.000;0.000;2023-05-07T06:54:06;21.90;43.80
38746;DHT22;24488;0.000;0.000;2023-05-07T06:56:32;21.90;44.30
38746;DHT22;24488;0.000;0.000;2023-05-07T06:58:57;21.90;44.40
38746;DHT22;24488;0.000;0.000;2023-05-07T07:01:23;21.90;44.50
38746;DHT22;24488;0.000;0.000;2023-05-07T07:03:48;22.00;44.50
38746;DHT22;24488;0.000;0.000;2023-05-07T07:06:14;21.90;43.90
38746;DHT22;24488;0.000;0.000;2023-05-07T07:08:39;22.00;44.50
38746;DHT22;24488;0.000;0.000;2023-05-07T07:11:05;22.00;44.50
38746;DHT22;24488;0.000;0.000;2023-05-07T07:13:31;22.00;44.60
38746;DHT22;24488;0.000;0.000;2023-05-07T07:15:57;22.00;44.10
38746;DHT22;24488;0.000;0.000;2023-05-07T07:18:22;22.00;44.70
38746;DHT22;24488;0.000;0.000;2023-05-07T07:20:48;22.00;44.70
38746;DHT22;24488;0.000;0.000;2023-05-07T07:23:14;22.10;44.70
38746;DHT22;24488;0.000;0.000;2023-05-07T07:25:39;22.10;44.30
38746;DHT22;24488;0.000;0.000;2023-05-07T07:28:05;22.10;44.80
38746;DHT22;24488;0.000;0.000;2023-05-07T07:30:31;22.10;44.80
38746;DHT22;24488;0.000;0.000;2023-05-07T07:32:56;22.10;44.30
38746;DHT22;24488;0.000;0.000;2023-05-07T07:35:28;22.20;44.40
38746;DHT22;24488;0.000;0.000;2023-05-07T07:37:59;22.20;44.90
38746;DHT22;24488;0.000;0.000;2023-05-07T07:40:25;22.20;44.90
38746;DHT22;24488;0.000;0.000;2023-05-07T07:42:51;22.20;44.90
38746;DHT22;24488;0.000;0.000;2023-05-07T07:45:17;22.20;44.50
38746;DHT22;24488;0.000;0.000;2023-05-07T07:47:43;22.20;44.90
38746;DHT22;24488;0.000;0.000;2023-05-07T07:50:08;22.40;45.00
38746;DHT22;24488;0.000;0.000;2023-05-07T07:52:34;22.30;44.90
38746;DHT22;24488;0.000;0.000;2023-05-07T07:55:00;22.30;44.50
38746;DHT22;24488;0.000;0.000;2023-05-07T07:57:26;22.30;45.00
38746;DHT22;24488;0.000;0.000;2023-05-07T07:59:52;22.30;45.00
38746;DHT22;24488;0.000;0.000;2023-05-07T08:02:17;22.30;45.00
38746;DHT22;24488;0.000;0.000;2023-05-07T08:04:43;22.30;44.50
38746;DHT22;24488;0.000;0.000;2023-05-07T08:07:09;22.30;45.20
38746;DHT22;24488;0.000;0.000;2023-05-07T08:09:35;22.40;45.20
38746;DHT22;24488;0.000;0.000;2023-05-07T08:12:02;22.30;45.10
38746;DHT22;24488;0.000;0.000;2023-05-07T08:14:27;22.30;44.70
38746;DHT22;24488;0.000;0.000;2023-05-07T08:16:53;22.30;44.70
38746;DHT22;24488;0.000;0.000;2023-05-07T08:19:19;22.40;44.80
38746;DHT22;24488;0.000;0.000;2023-05-07T08:21:45;22.40;45.20
38746;DHT22;24488;0.000;0.000;2023-05-07T08:24:13;22.40;45.20
38746;DHT22;24488;0.000;0.000;2023-05-07T08:26:39;22.40;45.30
38746;DHT22;24488;0.000;0.000;2023-05-07T08:29:05;22.40;44.80
38746;DHT22;24488;0.000;0.000;2023-05-07T08:31:31;22.40;45.20
38746;DHT22;24488;0.000;0.000;2023-05-07T08:33:57;22.30;45.80
38746;DHT22;24488;0.000;0.000;2023-05-07T08:36:23;22.40;45.20
38746;DHT22;24488;0.000;0.000;2023-05-07T08:38:48;22.40;44.70
38746;DHT22;24488;0.000;0.000;2023-05-07T08:41:14;22.30;45.10
38746;DHT22;24488;0.000;0.000;2023-05-07T08:43:41;22.30;45.00
38746;DHT22;24488;0.000;0.000;2023-05-07T08:46:06;22.50;45.00
38746;DHT22;24488;0.000;0.000;2023-05-07T08:48:34;22.30;44.50
38746;DHT22;24488;0.000;0.000;2023-05-07T08:51:00;22.30;45.00
38746;DHT22;24488;0.000;0.000;2023-05-07T08:53:26;22.30;44.90
38746;DHT22;24488;0.000;0.000;2023-05-07T08:55:51;22.20;44.90
38746;DHT22;24488;0.000;0.000;2023-05-07T08:58:18;22.30;44.50
38746;DHT22;24488;0.000;0.000;2023-05-07T09:00:43;22.30;45.10
38746;DHT22;24488;0.000;0.000;2023-05-07T09:03:09;22.30;44.90
38746;DHT22;24488;0.000;0.000;2023-05-07T09:05:37;22.20;45.80
38746;DHT22;24488;0.000;0.000;2023-05-07T09:08:03;22.00;46.00
38746;DHT22;24488;0.000;0.000;2023-05-07T09:10:30;22.00;46.50
38746;DHT22;24488;0.000;0.000;2023-05-07T09:12:58;22.10;46.00
38746;DHT22;24488;0.000;0.000;2023-05-07T09:15:23;22.20;45.80
38746;DHT22;24488;0.000;0.000;2023-05-07T09:17:50;22.50;45.40
38746;DHT22;24488;0.000;0.000;2023-05-07T09:20:16;22.20;45.70
38746;DHT22;24488;0.000;0.000;2023-05-07T09:22:41;22.20;45.70
38746;DHT22;24488;0.000;0.000;2023-05-07T09:25:09;22.30;45.60
38746;DHT22;24488;0.000;0.000;2023-05-07T09:27:35;22.20;44.90
38746;DHT22;24488;0.000;0.000;2023-05-07T09:30:07;22.20;45.50
38746;DHT22;24488;0.000;0.000;2023-05-07T09:32:36;22.30;45.50
38746;DHT22;24488;0.000;0.000;2023-05-07T09:35:05;22.30;46.10
38746;DHT22;24488;0.000;0.000;2023-05-07T09:37:31;22.30;45.30
38746;DHT22;24488;0.000;0.000;2023-05-07T09:39:57;22.30;45.70
38746;DHT22;24488;0.000;0.000;2023-05-07T09:42:26;22.30;45.70
38746;DHT22;24488;0.000;0.000;2023-05-07T09:44:52;22.40;45.80
38746;DHT22;24488;0.000;0.000;2023-05-07T09:47:22;22.40;45.60
38746;DHT22;24488;0.000;0.000;2023-05-07T09:49:49;22.30;46.00
38746;DHT22;24488;0.000;0.000;2023-05-07T09:52:15;22.40;45.90
38746;DHT22;24488;0.000;0.000;2023-05-07T09:54:41;22.40;46.10
38746;DHT22;24488;0.000;0.000;2023-05-07T09:57:09;22.40;46.00
38746;DHT22;24488;0.000;0.000;2023-05-07T09:59:36;22.40;45.50
38746;DHT22;24488;0.000;0.000;2023-05-07T10:02:03;22.40;45.90
38746;DHT22;24488;0.000;0.000;2023-05-07T10:04:29;22.40;45.90
38746;DHT22;24488;0.000;0.000;2023-05-07T10:06:56;22.40;45.90
38746;DHT22;24488;0.000;0.000;2023-05-07T10:09:22;22.40;45.50
38746;DHT22;24488;0.000;0.000;2023-05-07T10:11:51;22.40;45.80
38746;DHT22;24488;0.000;0.000;2023-05-07T10:14:17;22.40;45.80
38746;DHT22;24488;0.000;0.000;2023-05-07T10:16:42;22.40;45.80
38746;DHT22;24488;0.000;0.000;2023-05-07T10:19:08;22.40;45.60
38746;DHT22;24488;0.000;0.000;2023-05-07T10:21:37;22.40;46.00
38746;DHT22;24488;0.000;0.000;2023-05-07T10:24:12;22.40;45.90
38746;DHT22;24488;0.000;0.000;2023-05-07T10:26:45;22.40;45.90
38746;DHT22;24488;0.000;0.000;2023-05-07T10:34:56;22.50;45.90
38746;DHT22;24488;0.000;0.000;2023-05-07T10:37:25;22.40;45.30
38746;DHT22;24488;0.000;0.000;2023-05-07T10:39:51;22.40;45.80
38746;DHT22;24488;0.000;0.000;2023-05-07T10:42:17;22.40;45.80
38746;DHT22;24488;0.000;0.000;2023-05-07T10:44:43;22.50;45.30
38746;DHT22;24488;0.000;0.000;2023-05-07T10:54:45;22.50;45.80
38746;DHT22;24488;0.000;0.000;2023-05-07T10:57:32;22.50;45.40
38746;DHT22;24488;0.000;0.000;2023-05-07T11:00:01;22.50;45.80
38746;DHT22;24488;0.000;0.000;2023-05-07T11:05:40;22.50;45.80
38746;DHT22;24488;0.000;0.000;2023-05-07T11:08:07;22.50;45.40
38746;DHT22;24488;0.000;0.000;2023-05-07T11:16:16;22.50;45.80
38746;DHT22;24488;0.000;0.000;2023-05-07T11:18:48;22.50;45.50
38746;DHT22;24488;0.000;0.000;2023-05-07T11:21:37;22.50;45.90
38746;DHT22;24488;0.000;0.000;2023-05-07T11:24:08;22.50;45.80
38746;DHT22;24488;0.000;0.000;2023-05-07T11:26:48;22.50;45.80
38746;DHT22;24488;0.000;0.000;2023-05-07T11:29:14;22.40;45.30
38746;DHT22;24488;0.000;0.000;2023-05-07T11:31:47;22.40;45.70
38746;DHT22;24488;0.000;0.000;2023-05-07T11:34:13;22.50;45.70
38746;DHT22;24488;0.000;0.000;2023-05-07T11:36:44;22.50;45.20
38746;DHT22;24488;0.000;0.000;2023-05-07T11:42:25;22.40;45.60
38746;DHT22;24488;0.000;0.000;2023-05-07T11:44:57;22.40;45.60
38746;DHT22;24488;0.000;0.000;2023-05-07T11:47:23;22.40;45.20
38746;DHT22;24488;0.000;0.000;2023-05-07T11:49:50;22.40;45.60
38746;DHT22;24488;0.000;0.000;2023-05-07T11:52:17;22.40;45.60
38746;DHT22;24488;0.000;0.000;2023-05-07T11:54:53;22.40;45.50
38746;DHT22;24488;0.000;0.000;2023-05-07T11:57:21;22.40;45.10
38746;DHT22;24488;0.000;0.000;2023-05-07T11:59:47;22.40;45.60
38746;DHT22;24488;0.000;0.000;2023-05-07T12:02:13;22.40;46.10
38746;DHT22;24488;0.000;0.000;2023-05-07T12:04:40;22.40;45.60
38746;DHT22;24488;0.000;0.000;2023-05-07T12:07:13;22.30;45.10
38746;DHT22;24488;0.000;0.000;2023-05-07T12:09:40;22.40;45.60
38746;DHT22;24488;0.000;0.000;2023-05-07T12:12:09;22.30;45.50
38746;DHT22;24488;0.000;0.000;2023-05-07T12:14:41;22.40;45.50
38746;DHT22;24488;0.000;0.000;2023-05-07T12:17:08;22.40;45.20
38746;DHT22;24488;0.000;0.000;2023-05-07T12:19:35;22.40;45.60
38746;DHT22;24488;0.000;0.000;2023-05-07T12:22:02;22.40;45.70
38746;DHT22;24488;0.000;0.000;2023-05-07T12:24:28;22.40;45.70
38746;DHT22;24488;0.000;0.000;2023-05-07T12:26:53;22.40;45.20
38746;DHT22;24488;0.000;0.000;2023-05-07T12:29:22;22.40;45.70
38746;DHT22;24488;0.000;0.000;2023-05-07T12:31:49;22.40;45.70
38746;DHT22;24488;0.000;0.000;2023-05-07T12:34:15;23.50;46.30
38746;DHT22;24488;0.000;0.000;2023-05-07T12:36:40;22.40;45.30
38746;DHT22;24488;0.000;0.000;2023-05-07T12:39:06;22.40;45.80
38746;DHT22;24488;0.000;0.000;2023-05-07T12:41:55;22.50;45.80
38746;DHT22;24488;0.000;0.000;2023-05-07T12:44:28;22.50;45.90
38746;DHT22;24488;0.000;0.000;2023-05-07T12:46:55;22.50;45.40
38746;DHT22;24488;0.000;0.000;2023-05-07T12:49:21;22.50;45.90
38746;DHT22;24488;0.000;0.000;2023-05-07T12:51:47;22.50;45.90
38746;DHT22;24488;0.000;0.000;2023-05-07T12:54:14;22.50;45.90
38746;DHT22;24488;0.000;0.000;2023-05-07T12:57:00;22.50;45.50
38746;DHT22;24488;0.000;0.000;2023-05-07T12:59:36;22.50;46.00
38746;DHT22;24488;0.000;0.000;2023-05-07T13:02:06;22.50;45.90
38746;DHT22;24488;0.000;0.000;2023-05-07T13:04:32;22.50;45.90
38746;DHT22;24488;0.000;0.000;2023-05-07T13:06:58;22.50;45.50
38746;DHT22;24488;0.000;0.000;2023-05-07T13:09:24;22.50;46.10
38746;DHT22;24488;0.000;0.000;2023-05-07T13:11:49;22.50;46.00
38746;DHT22;24488;0.000;0.000;2023-05-07T13:14:15;22.50;45.90
38746;DHT22;24488;0.000;0.000;2023-05-07T13:16:41;22.50;45.50
38746;DHT22;24488;0.000;0.000;2023-05-07T13:19:06;22.60;46.10
38746;DHT22;24488;0.000;0.000;2023-05-07T13:21:32;22.50;46.00
38746;DHT22;24488;0.000;0.000;2023-05-07T13:23:58;22.60;46.20
38746;DHT22;24488;0.000;0.000;2023-05-07T13:26:24;22.50;46.00
38746;DHT22;24488;0.000;0.000;2023-05-07T13:28:50;22.60;45.70
38746;DHT22;24488;0.000;0.000;2023-05-07T13:31:16;22.60;46.20
38746;DHT22;24488;0.000;0.000;2023-05-07T13:33:42;22.60;46.40
38746;DHT22;24488;0.000;0.000;2023-05-07T13:36:08;22.60;46.40
38746;DHT22;24488;0.000;0.000;2023-05-07T13:38:34;22.50;45.70
38746;DHT22;24488;0.000;0.000;2023-05-07T13:41:00;22.60;46.20
38746;DHT22;24488;0.000;0.000;2023-05-07T13:43:25;22.60;46.20
38746;DHT22;24488;0.000;0.000;2023-05-07T13:45:51;22.60;46.20
38746;DHT22;24488;0.000;0.000;2023-05-07T13:48:17;22.60;45.70
38746;DHT22;24488;0.000;0.000;2023-05-07T13:50:42;22.60;46.20
38746;DHT22;24488;0.000;0.000;2023-05-07T13:53:08;22.50;46.10
38746;DHT22;24488;0.000;0.000;2023-05-07T13:55:33;22.50;46.20
38746;DHT22;24488;0.000;0.000;2023-05-07T13:58:00;22.50;45.70
38746;DHT22;24488;0.000;0.000;2023-05-07T14:00:27;22.50;46.20
38746;DHT22;24488;0.000;0.000;2023-05-07T14:02:53;22.50;46.10
38746;DHT22;24488;0.000;0.000;2023-05-07T14:05:19;22.50;46.10
38746;DHT22;24488;0.000;0.000;2023-05-07T14:07:44;22.50;45.60
38746;DHT22;24488;0.000;0.000;2023-05-07T14:10:10;22.50;46.10
38746;DHT22;24488;0.000;0.000;2023-05-07T14:12:36;22.40;45.90
38746;DHT22;24488;0.000;0.000;2023-05-07T14:15:02;22.50;46.10
38746;DHT22;24488;0.000;0.000;2023-05-07T14:17:28;22.50;45.60
38746;DHT22;24488;0.000;0.000;2023-05-07T14:19:54;22.50;46.10
38746;DHT22;24488;0.000;0.000;2023-05-07T14:22:20;22.50;46.10
38746;DHT22;24488;0.000;0.000;2023-05-07T14:24:47;22.50;46.10
38746;DHT22;24488;0.000;0.000;2023-05-07T14:27:13;22.40;45.60
38746;DHT22;24488;0.000;0.000;2023-05-07T14:29:38;22.40;46.00
38746;DHT22;24488;0.000;0.000;2023-05-07T14:32:04;22.40;46.10
38746;DHT22;24488;0.000;0.000;2023-05-07T14:34:30;22.40;46.10
38746;DHT22;24488;0.000;0.000;2023-05-07T14:36:56;22.40;45.60
38746;DHT22;24488;0.000;0.000;2023-05-07T14:39:22;22.40;46.10
38746;DHT22;24488;0.000;0.000;2023-05-07T14:41:48;22.40;46.00
38746;DHT22;24488;0.000;0.000;2023-05-07T14:44:13;22.40;46.00
38746;DHT22;24488;0.000;0.000;2023-05-07T14:46:39;22.40;45.50
38746;DHT22;24488;0.000;0.000;2023-05-07T14:49:05;22.40;46.00
38746;DHT22;24488;0.000;0.000;2023-05-07T14:51:30;22.40;46.00
38746;DHT22;24488;0.000;0.000;2023-05-07T14:53:56;22.40;45.80
38746;DHT22;24488;0.000;0.000;2023-05-07T14:56:22;22.50;45.90
38746;DHT22;24488;0.000;0.000;2023-05-07T14:58:47;22.40;45.40
38746;DHT22;24488;0.000;0.000;2023-05-07T15:01:16;22.40;45.90
38746;DHT22;24488;0.000;0.000;2023-05-07T15:03:42;22.40;45.90
38746;DHT22;24488;0.000;0.000;2023-05-07T15:06:07;22.40;46.00
38746;DHT22;24488;0.000;0.000;2023-05-07T15:08:33;22.40;45.50
38746;DHT22;24488;0.000;0.000;2023-05-07T15:10:58;22.40;46.60
38746;DHT22;24488;0.000;0.000;2023-05-07T15:13:24;22.40;46.00
38746;DHT22;24488;0.000;0.000;2023-05-07T15:15:49;22.40;46.00
38746;DHT22;24488;0.000;0.000;2023-05-07T15:18:15;22.40;45.50
38746;DHT22;24488;0.000;0.000;2023-05-07T15:20:41;22.40;45.90
38746;DHT22;24488;0.000;0.000;2023-05-07T15:23:07;22.40;46.00
38746;DHT22;24488;0.000;0.000;2023-05-07T15:25:38;22.40;46.00
38746;DHT22;24488;0.000;0.000;2023-05-07T15:28:03;22.50;45.50
38746;DHT22;24488;0.000;0.000;2023-05-07T15:30:29;22.40;46.00
38746;DHT22;24488;0.000;0.000;2023-05-07T15:32:54;22.40;46.00
38746;DHT22;24488;0.000;0.000;2023-05-07T15:35:20;22.40;46.00
38746;DHT22;24488;0.000;0.000;2023-05-07T15:37:49;22.40;45.60
38746;DHT22;24488;0.000;0.000;2023-05-07T15:40:15;22.40;46.00
38746;DHT22;24488;0.000;0.000;2023-05-07T15:42:41;22.40;45.90
38746;DHT22;24488;0.000;0.000;2023-05-07T15:45:07;22.40;45.90
38746;DHT22;24488;0.000;0.000;2023-05-07T15:47:33;22.40;45.60
38746;DHT22;24488;0.000;0.000;2023-05-07T15:50:02;22.40;46.00
38746;DHT22;24488;0.000;0.000;2023-05-07T15:52:28;22.40;46.00
38746;DHT22;24488;0.000;0.000;2023-05-07T15:54:54;22.30;46.00
38746;DHT22;24488;0.000;0.000;2023-05-07T15:57:21;22.40;45.50
38746;DHT22;24488;0.000;0.000;2023-05-07T15:59:47;22.40;46.00
38746;DHT22;24488;0.000;0.000;2023-05-07T16:02:12;22.40;45.90
38746;DHT22;24488;0.000;0.000;2023-05-07T16:04:38;22.40;45.90